Time;durP1;ratioP1;P1;durP2;ratioP2;P2;SDS_P1;SDS_P2;PMS_P1;PMS_P2;Temp;Humidity;BMP_temperature;BMP_pressure;BME280_temperature;BME280_humidity;BME280_pressure;Samples;Min_cycle;Max_cycle;Signal;HPM_P1;HPM_P2
2022/01/22 00:35:29;;;;;;;34.07;18.17;;;;;;;4.82;98.54;102093.88;5390327;23;20536;-85
2022/01/22 00:38:00;;;;;;;37.97;17.60;;;;;;;4.83;98.81;102092.88;4896980;29;20477;-87
2022/01/22 00:40:32;;;;;;;46.33;23.33;;;;;;;4.84;98.52;102094.63;4896844;29;20557;-87
2022/01/22 00:43:04;;;;;;;44.83;21.40;;;;;;;4.76;97.94;102076.28;4881419;29;20446;-87
2022/01/22 00:45:32;;;;;;;42.13;22.30;;;;;;;4.74;98.21;102083.69;4866692;29;20449;-87
2022/01/22 00:48:00;;;;;;;44.83;23.37;;;;;;;4.74;98.04;102078.25;4882091;29;20446;-87
2022/01/22 00:50:27;;;;;;;40.47;20.33;;;;;;;4.69;98.43;102071.47;4866487;29;21017;-87
2022/01/22 00:52:55;;;;;;;36.53;18.97;;;;;;;4.70;98.53;102074.06;4866288;29;20445;-87
2022/01/22 00:55:23;;;;;;;28.40;13.90;;;;;;;4.66;98.38;102067.16;4866826;29;20476;-87
2022/01/22 00:57:56;;;;;;;23.43;13.40;;;;;;;4.65;97.53;102068.16;4867748;29;20446;-87
2022/01/22 01:00:29;;;;;;;19.03;11.73;;;;;;;4.57;97.67;102065.22;4867609;29;20446;-90
2022/01/22 01:02:57;;;;;;;33.70;17.53;;;;;;;4.49;98.23;102059.53;4898322;29;20489;-87
2022/01/22 01:05:25;;;;;;;53.47;24.83;;;;;;;4.53;98.13;102062.88;4881693;29;20974;-87
2022/01/22 01:07:53;;;;;;;55.97;22.80;;;;;;;4.49;97.96;102056.84;4866542;29;20889;-87
2022/01/22 01:10:22;;;;;;;42.60;18.90;;;;;;;4.44;98.04;102056.31;4881363;29;20448;-87
2022/01/22 01:12:52;;;;;;;33.50;17.60;;;;;;;4.48;97.85;102060.53;4880993;29;20457;-89
2022/01/22 01:34:43;;;;;;;33.93;16.47;;;;;;;4.44;98.65;102053.63;4895870;29;20450;-87
2022/01/22 01:44:14;;;;;;;29.17;14.10;;;;;;;4.38;98.08;102048.72;4918659;29;20469;-87
2022/01/22 01:46:45;;;;;;;27.77;15.00;;;;;;;4.43;98.70;102049.19;4910555;29;20460;-85
2022/01/22 01:49:16;;;;;;;25.90;13.87;;;;;;;4.40;98.22;102047.63;4910735;29;20418;-87
2022/01/22 01:51:47;;;;;;;29.30;15.77;;;;;;;4.43;98.17;102051.91;4889168;29;20492;-87
2022/01/22 01:54:34;;;;;;;36.33;16.50;;;;;;;4.41;98.26;102048.47;4884872;29;20453;-87
2022/01/22 01:59:49;;;;;;;32.53;15.37;;;;;;;4.35;98.33;102052.53;4884872;29;20465;-88
2022/01/22 02:02:23;;;;;;;27.90;15.37;;;;;;;4.37;97.91;102057.81;4881391;29;20554;-87
2022/01/22 02:04:50;;;;;;;33.33;16.43;;;;;;;4.35;98.15;102054.38;4896689;29;20450;-87
2022/01/22 02:07:20;;;;;;;38.53;14.60;;;;;;;4.36;98.52;102056.09;4896784;29;20470;-87
2022/01/22 02:09:50;;;;;;;31.70;12.93;;;;;;;4.35;98.47;102043.53;4877880;29;20458;-87
2022/01/22 02:12:45;;;;;;;30.83;14.73;;;;;;;4.36;98.16;102047.97;4884568;29;21000;-87
2022/01/22 02:24:01;;;;;;;26.33;13.93;;;;;;;4.20;98.91;102037.50;4830331;29;20857;-87
2022/01/22 02:26:30;;;;;;;25.53;13.80;;;;;;;4.29;98.95;102046.72;4814099;29;20448;-88
2022/01/22 02:29:00;;;;;;;27.50;13.63;;;;;;;4.30;98.87;102045.75;4824310;29;20465;-87
2022/01/22 02:31:38;;;;;;;25.67;13.50;;;;;;;4.33;98.97;102048.22;4865393;29;20471;-87
2022/01/22 02:36:55;;;;;;;23.40;12.47;;;;;;;4.32;98.90;102060.03;4865849;29;20477;-87
2022/01/22 02:39:46;;;;;;;19.67;10.70;;;;;;;4.24;99.09;102035.41;4868057;29;20486;-87
2022/01/22 02:42:14;;;;;;;22.70;12.00;;;;;;;4.29;98.89;102044.03;4867975;29;20466;-87
2022/01/22 02:44:45;;;;;;;21.80;11.43;;;;;;;4.30;99.08;102052.03;4865901;29;20515;-87
2022/01/22 02:47:15;;;;;;;22.07;11.43;;;;;;;4.30;99.10;102048.44;4866659;29;20487;-87
2022/01/22 02:57:19;;;;;;;21.10;10.67;;;;;;;4.24;98.91;102044.38;4882281;29;20423;-88
2022/01/22 02:59:55;;;;;;;22.60;10.40;;;;;;;4.23;98.48;102050.81;4866504;29;20454;-88
2022/01/22 03:02:27;;;;;;;18.80;10.37;;;;;;;4.28;98.67;102053.97;4866176;29;20457;-87
2022/01/22 03:05:03;;;;;;;20.10;10.57;;;;;;;4.30;98.81;102067.41;4881427;29;20486;-89
2022/01/22 03:07:52;;;;;;;20.13;11.70;;;;;;;4.28;98.82;102058.53;4866640;29;20458;-88
2022/01/22 03:10:23;;;;;;;19.10;10.70;;;;;;;4.14;99.20;102046.97;4882247;29;20439;-89
2022/01/22 03:13:51;;;;;;;23.63;10.90;;;;;;;4.05;99.32;102036.84;4867240;29;20570;-88
2022/01/22 03:17:27;;;;;;;20.93;11.97;;;;;;;4.18;99.25;102062.97;4881349;29;20457;-89
2022/01/22 03:19:53;;;;;;;27.20;11.10;;;;;;;4.17;99.30;102059.38;4869094;29;20451;-89
2022/01/22 03:22:54;;;;;;;21.20;11.30;;;;;;;4.18;99.69;102058.41;4883759;29;20454;-89
2022/01/22 03:28:09;;;;;;;17.00;9.63;;;;;;;4.23;100.00;102055.34;4883575;29;20449;-89
2022/01/22 03:30:41;;;;;;;21.47;9.37;;;;;;;4.23;99.59;102061.63;4869814;29;20456;-89
2022/01/22 03:33:26;;;;;;;16.20;8.50;;;;;;;4.27;99.78;102048.69;4868249;29;20493;-89
2022/01/22 03:35:56;;;;;;;15.93;8.17;;;;;;;4.29;99.82;102057.56;4883681;29;20521;-89
2022/01/22 03:38:39;;;;;;;14.53;6.93;;;;;;;4.21;99.68;102047.34;4869252;29;21036;-88
2022/01/22 03:41:20;;;;;;;15.47;7.10;;;;;;;4.24;99.79;102047.09;4884542;29;20478;-89
2022/01/22 03:43:57;;;;;;;15.70;7.83;;;;;;;4.28;99.63;102058.53;4869086;29;20820;-89
2022/01/22 03:46:32;;;;;;;11.00;6.70;;;;;;;4.23;99.78;102049.94;4899381;29;20445;-89
2022/01/22 03:49:01;;;;;;;17.03;8.90;;;;;;;4.16;99.68;102045.00;4884097;29;20966;-88
2022/01/22 03:51:41;;;;;;;19.20;10.23;;;;;;;4.22;99.57;102054.50;4868775;29;20584;-90
2022/01/22 03:54:10;;;;;;;14.33;9.00;;;;;;;4.16;100.00;102039.59;4878584;29;20453;-89
2022/01/22 03:56:44;;;;;;;14.90;8.83;;;;;;;4.14;99.98;102046.97;4880153;29;20546;-89
2022/01/22 03:59:15;;;;;;;16.50;8.17;;;;;;;4.15;100.00;102050.53;4880674;29;20438;-89
2022/01/22 04:04:39;;;;;;;13.23;7.67;;;;;;;4.21;99.96;102041.06;4880545;29;20609;-88
2022/01/22 04:10:03;;;;;;;9.60;6.03;;;;;;;4.18;99.68;102036.75;4867612;29;20545;-88
2022/01/22 04:12:50;;;;;;;11.67;6.47;;;;;;;4.17;99.96;102029.63;4865746;29;20489;-89
2022/01/22 04:15:33;;;;;;;10.77;6.87;;;;;;;4.15;100.00;102027.03;4882509;29;20989;-88
2022/01/22 04:26:42;;;;;;;10.03;5.77;;;;;;;4.16;100.00;102036.88;4886351;29;20438;-89
2022/01/22 04:29:10;;;;;;;9.87;6.00;;;;;;;4.18;99.80;102030.50;4871082;29;20453;-89
2022/01/22 04:31:40;;;;;;;10.87;6.50;;;;;;;4.16;99.94;102031.47;4865956;29;20481;-89
2022/01/22 04:34:14;;;;;;;18.83;7.10;;;;;;;4.19;99.91;102029.50;4898420;29;20464;-89
2022/01/22 04:36:43;;;;;;;10.00;6.23;;;;;;;4.22;99.87;102042.81;4883089;29;20467;-89
2022/01/22 04:39:11;;;;;;;7.03;5.43;;;;;;;4.22;99.90;102038.25;4868125;29;20442;-88
2022/01/22 04:41:44;;;;;;;9.10;5.90;;;;;;;4.23;99.90;102029.16;4883315;29;20461;-89
2022/01/22 04:44:18;;;;;;;9.13;5.67;;;;;;;4.14;99.98;102014.50;4883343;29;20434;-89
2022/01/22 04:55:04;;;;;;;8.73;6.07;;;;;;;4.30;100.00;102038.50;4860020;29;20891;-87
2022/01/22 04:57:39;;;;;;;12.87;5.93;;;;;;;4.34;100.00;102041.81;4845370;29;20458;-89
2022/01/22 05:00:14;;;;;;;10.73;5.87;;;;;;;4.43;100.00;102038.38;4829729;29;20462;-88
2022/01/22 05:02:42;;;;;;;11.00;6.10;;;;;;;4.51;100.00;102042.19;4830041;29;20503;-88
2022/01/22 05:05:18;;;;;;;16.67;6.00;;;;;;;4.65;100.00;102048.34;4815174;29;20854;-89
2022/01/22 05:07:47;;;;;;;9.60;6.27;;;;;;;4.76;100.00;102029.41;4830297;29;20473;-88
2022/01/22 05:10:24;;;;;;;9.07;5.90;;;;;;;4.75;100.00;102019.56;4829980;29;20448;-88
2022/01/22 05:12:58;;;;;;;9.60;5.70;;;;;;;4.94;100.00;102024.31;4860458;29;20545;-89
2022/01/22 05:15:32;;;;;;;12.93;5.77;;;;;;;5.05;100.00;102025.16;4829802;29;20452;-89
2022/01/22 05:18:09;;;;;;;8.47;5.33;;;;;;;5.21;100.00;102030.16;4831061;29;21000;-88
2022/01/22 05:20:48;;;;;;;7.73;5.30;;;;;;;5.37;100.00;102022.50;4833300;29;20443;-88
2022/01/22 05:23:22;;;;;;;16.23;6.30;;;;;;;5.55;100.00;102015.50;4820565;29;20525;-87
2022/01/22 05:26:02;;;;;;;14.57;5.70;;;;;;;5.78;100.00;102026.22;4834170;29;20535;-87
2022/01/22 05:39:24;;;;;;;12.13;6.00;;;;;;;6.39;100.00;102004.63;4868685;29;20453;-88
2022/01/22 05:41:56;;;;;;;8.90;5.70;;;;;;;6.59;100.00;102017.31;4868295;29;20462;-89
2022/01/22 05:44:27;;;;;;;14.77;6.30;;;;;;;6.67;100.00;102017.50;4868227;29;20471;-89
2022/01/22 05:46:59;;;;;;;13.17;5.60;;;;;;;6.71;100.00;102021.66;4868484;29;20486;-89
2022/01/22 05:49:28;;;;;;;9.67;6.13;;;;;;;6.77;100.00;102020.22;4869183;29;20458;-88
2022/01/22 05:52:00;;;;;;;12.70;6.00;;;;;;;6.79;100.00;102019.09;4873063;29;20505;-88
2022/01/22 05:54:54;;;;;;;6.83;5.20;;;;;;;6.83;100.00;102023.25;4886293;29;20979;-88
2022/01/22 06:00:14;;;;;;;10.57;5.20;;;;;;;6.81;100.00;102014.41;4900787;29;20454;-88
2022/01/22 06:02:42;;;;;;;8.67;5.57;;;;;;;6.91;100.00;102018.00;4898479;29;20461;-88
2022/01/22 06:05:10;;;;;;;9.33;5.57;;;;;;;6.98;100.00;102026.44;4870604;29;20916;-88
2022/01/22 06:07:51;;;;;;;16.33;5.30;;;;;;;7.01;100.00;102022.59;4870956;29;20485;-88
2022/01/22 06:10:26;;;;;;;16.60;6.93;;;;;;;7.08;100.00;102024.63;4869403;29;20453;-88
2022/01/22 06:13:16;;;;;;;8.00;5.30;;;;;;;7.11;100.00;102020.78;4886948;29;20565;-89
2022/01/22 06:15:52;;;;;;;10.67;5.40;;;;;;;7.16;100.00;102026.63;4888154;29;20482;-88
2022/01/22 06:18:23;;;;;;;8.43;5.20;;;;;;;7.17;100.00;102022.91;4900426;29;20456;-89
2022/01/22 06:21:09;;;;;;;11.87;6.17;;;;;;;7.18;100.00;102024.63;4871882;29;20528;-88
2022/01/22 06:23:47;;;;;;;15.83;5.20;;;;;;;7.16;100.00;102029.34;4900941;29;20925;-89
2022/01/22 06:26:24;;;;;;;21.57;6.87;;;;;;;7.19;100.00;102037.22;4870587;29;20994;-88
2022/01/22 06:28:59;;;;;;;15.67;5.90;;;;;;;7.19;100.00;102035.38;4900119;29;20469;-88
2022/01/22 06:31:27;;;;;;;8.23;4.87;;;;;;;7.21;100.00;102041.53;4869858;29;20579;-88
2022/01/22 06:33:59;;;;;;;11.13;4.60;;;;;;;7.23;100.00;102039.53;4869628;29;20492;-88
2022/01/22 06:36:35;;;;;;;9.63;5.90;;;;;;;7.24;100.00;102041.25;4870341;29;20462;-88
2022/01/22 06:39:12;;;;;;;10.20;5.20;;;;;;;7.23;100.00;102041.41;4883912;29;21017;-88
2022/01/22 06:41:44;;;;;;;9.40;5.83;;;;;;;7.25;100.00;102053.00;4891686;29;20443;-88
2022/01/22 06:44:17;;;;;;;11.83;5.90;;;;;;;7.27;100.00;102051.00;4883128;29;20474;-88
2022/01/22 06:46:50;;;;;;;9.83;5.40;;;;;;;7.30;100.00;102053.44;4900303;29;20453;-88
2022/01/22 06:49:17;;;;;;;12.43;5.30;;;;;;;7.32;100.00;102051.41;4899868;29;20438;-88
2022/01/22 06:51:46;;;;;;;7.03;5.20;;;;;;;7.30;100.00;102056.16;4885184;29;20458;-88
2022/01/22 06:54:17;;;;;;;9.70;5.10;;;;;;;7.33;100.00;102055.84;4870485;29;20933;-87
2022/01/22 06:56:55;;;;;;;8.13;5.30;;;;;;;7.37;100.00;102062.72;4869635;29;20461;-89
2022/01/22 06:59:23;;;;;;;11.17;5.63;;;;;;;7.30;100.00;102058.88;4885040;29;20500;-88
2022/01/22 07:01:54;;;;;;;12.40;5.20;;;;;;;7.27;100.00;102049.13;4870059;29;20454;-88
2022/01/22 07:04:43;;;;;;;8.40;5.00;;;;;;;7.40;100.00;102073.34;4885139;29;20813;-90
2022/01/22 07:07:41;;;;;;;9.50;5.70;;;;;;;7.40;100.00;102073.34;4900756;29;20569;-89
2022/01/22 07:13:56;;;;;;;9.20;5.77;;;;;;;7.35;100.00;102075.63;4908890;29;20607;-89
2022/01/22 07:16:25;;;;;;;13.03;6.40;;;;;;;7.34;100.00;102075.75;4889757;29;20453;-89
2022/01/22 07:18:59;;;;;;;11.43;5.63;;;;;;;7.30;100.00;102072.47;4887868;29;20497;-88
2022/01/22 07:21:29;;;;;;;10.07;5.97;;;;;;;7.10;100.00;102047.09;4913939;29;20941;-89
2022/01/22 07:26:34;;;;;;;11.07;6.43;;;;;;;7.06;100.00;102070.13;4907958;29;20457;-89
2022/01/22 07:29:26;;;;;;;9.17;5.43;;;;;;;7.10;100.00;102076.16;4869330;29;20540;-88
2022/01/22 07:32:17;;;;;;;14.80;6.23;;;;;;;7.02;100.00;102084.13;4884702;29;20481;-89
2022/01/22 07:34:45;;;;;;;12.53;6.63;;;;;;;6.89;100.00;102082.50;4878758;29;20463;-88
2022/01/22 07:37:25;;;;;;;15.47;6.60;;;;;;;6.74;100.00;102063.97;4865995;29;20469;-88
2022/01/22 07:39:58;;;;;;;17.00;10.07;;;;;;;6.68;100.00;102068.13;4866789;29;20441;-88
2022/01/22 07:42:26;;;;;;;13.93;7.17;;;;;;;6.63;100.00;102067.66;4865364;29;20455;-88
2022/01/22 07:44:54;;;;;;;11.40;5.70;;;;;;;6.47;100.00;102059.16;4865173;29;20447;-88
2022/01/22 07:47:23;;;;;;;9.43;5.90;;;;;;;6.44;100.00;102067.56;4865044;29;21030;-88
2022/01/22 07:49:51;;;;;;;9.77;6.03;;;;;;;6.37;100.00;102061.78;4880279;29;20897;-88
2022/01/22 07:52:28;;;;;;;10.47;6.07;;;;;;;6.35;100.00;102073.81;4882202;29;20550;-88
2022/01/22 07:55:15;;;;;;;10.57;5.57;;;;;;;6.36;100.00;102064.63;4888703;29;20529;-89
2022/01/22 07:57:44;;;;;;;11.63;6.17;;;;;;;6.48;100.00;102085.31;4901132;29;20457;-89
2022/01/22 08:00:24;;;;;;;13.27;5.23;;;;;;;6.36;100.00;102067.34;4885045;29;21010;-90
2022/01/22 08:02:52;;;;;;;12.23;7.07;;;;;;;6.48;100.00;102083.44;4878765;29;20462;-89
2022/01/22 08:05:29;;;;;;;8.30;5.60;;;;;;;6.68;100.00;102103.44;4872084;29;20486;-89
2022/01/22 08:07:58;;;;;;;11.73;5.50;;;;;;;6.73;100.00;102101.19;4883097;29;20439;-91
2022/01/22 08:10:27;;;;;;;7.33;5.20;;;;;;;6.82;100.00;102094.91;4883836;29;20510;-90
2022/01/22 08:12:55;;;;;;;16.60;5.50;;;;;;;6.78;100.00;102069.00;4867380;29;20566;-89
2022/01/22 08:15:23;;;;;;;8.60;3.77;;;;;;;6.96;100.00;102084.66;4868423;29;20514;-89
2022/01/22 08:17:55;;;;;;;7.10;4.87;;;;;;;7.06;100.00;102085.56;4868862;29;20831;-90
2022/01/22 08:20:25;;;;;;;6.80;3.80;;;;;;;7.18;100.00;102089.88;4867414;29;20447;-90
2022/01/22 08:22:57;;;;;;;9.27;4.20;;;;;;;7.34;100.00;102092.94;4871338;29;20464;-90
2022/01/22 08:25:32;;;;;;;8.30;4.40;;;;;;;7.35;100.00;102080.19;4899545;29;20458;-90
2022/01/22 08:30:34;;;;;;;10.43;4.50;;;;;;;7.43;100.00;102066.75;4879919;29;20455;-90
2022/01/22 08:35:52;;;;;;;8.87;4.10;;;;;;;7.50;100.00;102068.78;4857087;29;20500;-89
2022/01/22 08:36:18;;;;;;;6.37;4.17;;;;;;;7.58;100.00;102071.66;4880665;29;20478;-89
2022/01/22 08:38:56;;;;;;;7.70;4.23;;;;;;;7.66;100.00;102061.91;4879759;29;20458;-89
2022/01/22 08:41:28;;;;;;;6.17;3.90;;;;;;;7.87;100.00;102087.13;4868294;29;20442;-89
2022/01/22 08:44:07;;;;;;;8.50;4.00;;;;;;;7.99;100.00;102091.41;4899288;29;20438;-89
2022/01/22 08:46:53;;;;;;;5.83;3.77;;;;;;;7.98;100.00;102076.09;4898686;29;21036;-88
2022/01/22 08:49:21;;;;;;;5.80;4.57;;;;;;;8.12;100.00;102091.13;4884583;29;21023;-88
2022/01/22 08:51:58;;;;;;;7.33;3.47;;;;;;;8.10;100.00;102083.09;4884113;29;20462;-89
2022/01/22 08:54:33;;;;;;;6.10;4.07;;;;;;;8.21;100.00;102074.78;4869499;29;20572;-90
2022/01/22 08:57:05;;;;;;;8.17;4.33;;;;;;;8.30;100.00;102078.47;4883750;29;21016;-90
2022/01/22 08:59:39;;;;;;;8.90;4.30;;;;;;;8.52;100.00;102104.56;4869693;29;20455;-90
2022/01/22 09:05:54;;;;;;;4.77;3.30;;;;;;;8.72;100.00;102110.81;4899049;29;20491;-89
2022/01/22 09:08:24;;;;;;;5.47;3.70;;;;;;;8.68;100.00;102091.16;4865224;29;20482;-89
2022/01/22 09:10:52;;;;;;;6.07;3.47;;;;;;;8.84;100.00;102099.59;4889122;29;20861;-90
2022/01/22 09:13:21;;;;;;;8.03;3.83;;;;;;;8.86;100.00;102077.63;4883705;29;20470;-88
2022/01/22 09:15:55;;;;;;;14.13;4.53;;;;;;;9.13;100.00;102104.06;4861103;29;20464;-88
2022/01/22 09:18:31;;;;;;;6.97;3.70;;;;;;;9.18;100.00;102093.56;4881656;29;20453;-89
2022/01/22 09:21:51;;;;;;;7.57;4.13;;;;;;;9.42;100.00;102099.31;4855408;29;20502;-90
2022/01/22 09:24:27;;;;;;;8.80;4.00;;;;;;;9.52;100.00;102105.56;4869068;29;20445;-90
2022/01/22 09:26:58;;;;;;;5.30;3.60;;;;;;;9.62;100.00;102106.34;4877709;29;20457;-87
2022/01/22 09:29:26;;;;;;;6.97;3.67;;;;;;;9.57;100.00;102069.63;4879946;29;20497;-87
2022/01/22 09:31:56;;;;;;;7.37;3.53;;;;;;;9.67;100.00;102086.75;4883728;29;20953;-89
2022/01/22 09:34:31;;;;;;;8.00;3.20;;;;;;;9.77;100.00;102092.16;4879531;29;20478;-87
2022/01/22 09:37:02;;;;;;;9.63;3.47;;;;;;;9.83;100.00;102097.84;4884130;29;20533;-89
2022/01/22 09:39:30;;;;;;;8.83;3.13;;;;;;;9.94;100.00;102099.50;4878458;29;20459;-88
2022/01/22 09:42:01;;;;;;;5.27;3.07;;;;;;;10.06;100.00;102095.50;4881676;29;20438;-88
2022/01/22 09:44:31;;;;;;;6.50;3.37;;;;;;;10.15;100.00;102100.03;4881128;29;20666;-88
2022/01/22 09:47:02;;;;;;;7.33;3.03;;;;;;;10.18;100.00;102086.06;4881712;29;20452;-87
2022/01/22 09:49:34;;;;;;;4.77;3.13;;;;;;;10.36;100.00;102100.59;4899535;29;20456;-88
2022/01/22 09:52:04;;;;;;;8.33;4.00;;;;;;;10.45;100.00;102103.34;4885329;29;21007;-90
2022/01/22 09:55:09;;;;;;;7.50;3.40;;;;;;;10.58;100.00;102114.75;4897006;29;20493;-92
2022/01/22 10:01:26;;;;;;;10.10;3.40;;;;;;;10.84;100.00;102107.38;4893275;29;20453;-91
2022/01/22 10:03:56;;;;;;;7.13;3.50;;;;;;;10.95;100.00;102112.59;4872628;29;20442;-92
2022/01/22 10:07:01;;;;;;;8.83;3.43;;;;;;;11.08;100.00;102118.47;4870634;29;21000;-92
2022/01/22 10:10:01;;;;;;;7.83;3.07;;;;;;;11.19;100.00;102120.03;4912804;29;20502;-92
2022/01/22 10:12:51;;;;;;;7.97;2.93;;;;;;;11.20;100.00;102102.59;4897726;29;20449;-91
2022/01/22 10:15:25;;;;;;;7.00;3.10;;;;;;;11.29;100.00;102104.38;4874182;29;20454;-91
2022/01/22 10:18:13;;;;;;;6.10;3.03;;;;;;;11.55;100.00;102125.31;4868704;29;20446;-91
2022/01/22 10:20:54;;;;;;;11.60;4.50;;;;;;;11.65;99.36;102126.88;4867896;29;20457;-90
2022/01/22 10:23:26;;;;;;;14.40;6.63;;;;;;;11.68;99.21;102121.09;4901171;29;20461;-93
2022/01/22 10:26:03;;;;;;;11.60;4.67;;;;;;;11.92;98.91;102138.63;4920476;29;20524;-93
2022/01/22 10:29:01;;;;;;;7.93;3.60;;;;;;;12.01;98.48;102127.50;4870686;29;20447;-96
2022/01/22 10:31:53;;;;;;;10.10;5.20;;;;;;;12.12;97.34;102128.22;4884361;29;20466;-92
2022/01/22 10:34:43;;;;;;;9.80;4.83;;;;;;;12.20;96.85;102131.81;4875454;29;20495;-89
2022/01/22 10:37:33;;;;;;;11.13;4.10;;;;;;;12.21;96.83;102133.53;4900918;29;20442;-93
2022/01/22 10:40:28;;;;;;;8.20;3.40;;;;;;;12.31;96.51;102139.72;4886596;29;20505;-90
2022/01/22 10:43:31;;;;;;;10.70;4.50;;;;;;;12.22;96.06;102107.81;4900049;29;20959;-92
2022/01/22 10:49:14;;;;;;;5.37;3.07;;;;;;;12.61;94.69;102134.53;4908006;29;20450;-94
2022/01/22 10:52:35;;;;;;;8.00;2.50;;;;;;;12.89;95.01;102133.13;4913150;29;20457;-92
2022/01/22 10:59:21;;;;;;;7.07;2.40;;;;;;;13.57;91.99;102126.22;4886770;29;20898;-87
2022/01/22 11:02:06;;;;;;;11.00;3.00;;;;;;;13.80;91.30;102132.59;4854891;29;20465;-87
2022/01/22 11:04:48;;;;;;;5.63;2.53;;;;;;;13.99;90.37;102128.53;4881886;29;20462;-88
2022/01/22 11:07:33;;;;;;;10.90;2.97;;;;;;;14.04;89.42;102117.84;4843492;29;20440;-89
2022/01/22 11:10:05;;;;;;;6.40;2.43;;;;;;;14.15;88.52;102117.41;4817124;29;20472;-87
2022/01/22 11:12:38;;;;;;;16.77;2.70;;;;;;;14.13;88.00;102111.25;4830821;29;20513;-87
2022/01/22 11:15:08;;;;;;;6.83;1.87;;;;;;;14.21;87.25;102118.59;4827379;29;20918;-87
2022/01/22 11:17:38;;;;;;;10.63;2.70;;;;;;;14.25;87.30;102130.91;4828716;29;20493;-88
2022/01/22 11:20:10;;;;;;;5.20;2.13;;;;;;;14.23;86.68;102133.88;4812055;29;20589;-86
2022/01/22 11:22:46;;;;;;;6.80;3.17;;;;;;;14.21;86.42;102124.09;4834953;29;20889;-89
2022/01/22 11:25:15;;;;;;;11.27;4.37;;;;;;;14.21;86.76;102113.94;4809391;29;20475;-86
2022/01/22 11:27:42;;;;;;;19.53;5.10;;;;;;;14.41;87.03;102125.31;4823431;29;20465;-86
2022/01/22 11:30:12;;;;;;;14.53;3.40;;;;;;;14.49;86.74;102126.09;4823860;29;20574;-86
2022/01/22 11:33:09;;;;;;;12.60;2.87;;;;;;;14.48;86.40;102127.13;4845020;29;20484;-88
2022/01/22 11:36:04;;;;;;;10.93;4.90;;;;;;;14.51;86.45;102110.25;4821853;29;20573;-86
2022/01/22 11:38:53;;;;;;;15.40;3.13;;;;;;;14.67;86.76;102114.75;4860613;29;20449;-91
2022/01/22 11:41:24;;;;;;;9.37;3.83;;;;;;;14.75;87.00;102108.31;4868818;29;20457;-87
2022/01/22 11:46:45;;;;;;;11.43;3.97;;;;;;;15.01;86.28;102111.44;4901055;29;20494;-87
2022/01/22 11:49:26;;;;;;;9.27;2.70;;;;;;;15.12;86.03;102108.22;4871520;29;20445;-89
2022/01/22 11:59:24;;;;;;;9.60;3.20;;;;;;;15.19;85.73;102091.81;4901666;29;20417;-85
2022/01/22 12:02:27;;;;;;;19.13;4.23;;;;;;;15.26;84.08;102095.50;4821886;29;20484;-86
2022/01/22 12:05:04;;;;;;;11.40;4.07;;;;;;;15.31;83.92;102083.91;4826125;29;20962;-85
2022/01/22 12:08:19;;;;;;;19.23;3.60;;;;;;;15.44;84.04;102084.91;4786685;30;20451;-86
2022/01/22 12:14:48;;;;;;;15.53;1.80;;;;;;;15.47;82.88;102075.41;4816923;29;20489;-86
2022/01/22 12:17:50;;;;;;;12.10;3.73;;;;;;;15.57;83.26;102067.75;4804919;29;20486;-86
2022/01/22 12:23:09;;;;;;;9.37;3.77;;;;;;;15.79;83.07;102058.41;4792864;29;20528;-85
2022/01/22 12:25:40;;;;;;;7.80;3.53;;;;;;;15.94;83.31;102052.00;4801212;29;20982;-86
2022/01/22 12:28:09;;;;;;;7.20;2.63;;;;;;;16.00;82.77;102045.69;4801134;29;20458;-85
2022/01/22 12:30:44;;;;;;;6.90;2.60;;;;;;;16.02;82.05;102032.56;4802184;29;20448;-85
2022/01/22 12:33:54;;;;;;;10.20;3.30;;;;;;;16.05;82.27;102027.50;4806334;29;20464;-85
2022/01/22 12:53:11;;;;;;;7.70;2.63;;;;;;;16.43;80.08;102038.22;4861260;29;20403;-86
2022/01/22 13:03:33;;;;;;;15.10;4.83;;;;;;;16.58;79.98;102019.63;4861167;29;20406;-86
2022/01/22 13:06:53;;;;;;;7.60;2.17;;;;;;;16.67;79.87;102032.28;4844943;29;20539;-86
2022/01/22 13:13:18;;;;;;;9.70;1.87;;;;;;;16.16;80.85;102001.31;4861520;29;20782;-85
2022/01/22 13:16:42;;;;;;;18.33;3.23;;;;;;;16.22;80.73;102025.31;4875559;29;20508;-86
2022/01/22 13:19:33;;;;;;;7.77;2.93;;;;;;;16.30;81.00;102019.66;4861854;29;20483;-86
2022/01/22 13:22:02;;;;;;;8.20;1.47;;;;;;;16.31;81.09;102004.81;4860563;29;20818;-86
2022/01/22 13:28:19;;;;;;;4.83;1.70;;;;;;;16.56;81.86;101980.34;4861751;29;20411;-86
2022/01/22 13:30:53;;;;;;;7.60;1.83;;;;;;;16.81;80.53;101997.28;4860457;29;20447;-86
2022/01/22 13:33:35;;;;;;;4.17;1.50;;;;;;;16.87;79.80;101982.69;4845715;29;20446;-86
2022/01/22 13:36:16;;;;;;;5.63;2.13;;;;;;;16.88;78.53;101968.66;4846760;29;20456;-86
2022/01/22 13:48:52;;;;;;;4.83;2.13;;;;;;;17.18;77.58;101969.19;4882099;29;20946;-86
2022/01/22 13:51:33;;;;;;;6.80;2.30;;;;;;;17.19;77.86;101943.28;4881852;29;20438;-87
2022/01/22 13:54:12;;;;;;;6.40;1.60;;;;;;;17.39;78.03;101948.00;4881811;29;20535;-86
2022/01/22 13:56:56;;;;;;;4.80;2.03;;;;;;;17.56;76.41;101971.41;4866237;29;20510;-85
2022/01/22 14:03:44;;;;;;;13.17;2.20;;;;;;;17.73;75.57;101961.69;4883245;29;20414;-86
2022/01/22 14:06:12;;;;;;;5.43;2.00;;;;;;;17.77;75.47;101957.44;4897614;29;20450;-86
2022/01/22 14:08:40;;;;;;;8.60;2.47;;;;;;;17.76;74.97;101961.28;4882527;29;20485;-85
2022/01/22 14:11:09;;;;;;;4.03;1.40;;;;;;;17.83;75.10;101953.00;4897982;29;20929;-85
2022/01/22 14:17:24;;;;;;;7.17;1.63;;;;;;;17.70;74.85;101939.16;4883647;29;20503;-85
2022/01/22 14:20:12;;;;;;;8.27;1.77;;;;;;;17.72;74.64;101914.88;4897003;29;20942;-86
2022/01/22 14:23:08;;;;;;;10.37;2.00;;;;;;;17.91;74.59;101948.06;4882026;29;20465;-87
2022/01/22 14:26:04;;;;;;;13.53;1.83;;;;;;;17.86;73.68;101936.81;4881351;29;20786;-86
2022/01/22 14:28:58;;;;;;;8.50;1.30;;;;;;;17.80;74.10;101936.81;4880710;29;20482;-85
2022/01/22 14:35:20;;;;;;;4.97;1.60;;;;;;;17.84;73.96;101924.28;4882034;29;20488;-86
2022/01/22 14:37:54;;;;;;;16.23;1.60;;;;;;;17.76;73.54;101917.03;4865736;29;20443;-86
2022/01/22 14:46:42;;;;;;;13.00;3.30;;;;;;;17.82;73.77;101930.00;4880973;29;20502;-85
2022/01/22 14:49:10;;;;;;;7.23;2.20;;;;;;;17.64;73.41;101915.97;4880706;29;20442;-85
2022/01/22 14:51:38;;;;;;;13.93;1.97;;;;;;;17.58;74.18;101922.31;4880126;29;20443;-86
2022/01/22 14:54:07;;;;;;;37.17;2.83;;;;;;;17.24;74.68;101904.81;4880998;29;20483;-85
2022/01/22 14:56:47;;;;;;;14.10;1.90;;;;;;;17.08;75.20;101896.94;4881907;29;21010;-86
2022/01/22 14:59:14;;;;;;;24.47;3.30;;;;;;;17.05;76.04;101900.09;4882016;29;20947;-85
2022/01/22 15:01:59;;;;;;;26.17;2.97;;;;;;;17.04;76.90;101922.41;4870182;29;20553;-86
2022/01/22 15:04:32;;;;;;;22.63;3.70;;;;;;;17.02;77.01;101927.28;4898594;29;20457;-85
2022/01/22 15:07:11;;;;;;;23.07;3.70;;;;;;;17.00;77.10;101927.50;4903155;29;20959;-85
2022/01/22 15:09:42;;;;;;;6.87;1.90;;;;;;;16.98;77.38;101923.22;4907185;29;20457;-84
2022/01/22 15:12:11;;;;;;;23.33;2.60;;;;;;;17.01;77.03;101929.19;4900643;29;20454;-84
2022/01/22 15:14:40;;;;;;;14.10;2.07;;;;;;;16.95;76.81;101930.00;4868050;29;20493;-84
2022/01/22 15:19:39;;;;;;;9.40;3.17;;;;;;;16.95;77.43;101932.78;4899686;29;20457;-85
2022/01/22 15:22:10;;;;;;;8.10;1.47;;;;;;;16.95;77.15;101930.00;4882377;29;20559;-86
2022/01/22 15:24:42;;;;;;;7.73;1.77;;;;;;;16.96;77.34;101928.09;4898298;29;20505;-85
2022/01/22 15:27:10;;;;;;;10.73;2.43;;;;;;;16.97;77.92;101927.91;4864600;29;20455;-85
2022/01/22 15:29:57;;;;;;;11.10;2.00;;;;;;;17.02;78.04;101919.00;4879761;29;20483;-85
2022/01/22 15:35:10;;;;;;;8.40;2.10;;;;;;;17.08;77.95;101919.03;4882954;29;20500;-86
2022/01/22 15:37:40;;;;;;;5.70;2.03;;;;;;;17.19;77.90;101929.47;4901945;29;20830;-84
2022/01/22 15:40:12;;;;;;;12.47;3.90;;;;;;;17.22;77.38;101929.03;4898157;29;20442;-84
2022/01/22 15:42:39;;;;;;;5.87;1.80;;;;;;;17.16;76.91;101927.09;4898263;29;20473;-84
2022/01/22 15:45:08;;;;;;;16.27;2.20;;;;;;;17.18;76.59;101935.19;4883282;29;20444;-85
2022/01/22 15:47:36;;;;;;;13.67;2.30;;;;;;;17.22;76.73;101929.03;4899601;29;20485;-86
2022/01/22 15:50:05;;;;;;;11.57;1.60;;;;;;;17.11;76.86;101918.63;4860364;29;20446;-83
2022/01/22 15:52:32;;;;;;;15.97;1.93;;;;;;;17.23;76.80;101933.50;4864464;29;20446;-84